createdAt,value
2023-04-22T00:00:56.000Z,11.6
2023-04-22T00:02:02.000Z,11.6
2023-04-22T00:03:08.000Z,11.6
2023-04-22T00:05:20.000Z,10.3
2023-04-22T00:06:26.000Z,11.2
2023-04-22T00:07:32.000Z,11.6
2023-04-22T00:08:38.000Z,11.2
2023-04-22T00:09:44.000Z,11.6
2023-04-22T00:10:49.000Z,11.2
2023-04-22T00:13:02.000Z,11.2
2023-04-22T00:14:08.000Z,11.9
2023-04-22T00:15:14.000Z,10.6
2023-04-22T00:16:20.000Z,11.6
2023-04-22T00:17:26.000Z,11.6
2023-04-22T00:18:32.000Z,11.2
2023-04-22T00:20:44.000Z,11.2
2023-04-22T00:21:49.000Z,11.2
2023-04-22T00:22:54.000Z,10.6
2023-04-22T00:24:00.000Z,11.2
2023-04-22T00:25:06.000Z,11.2
2023-04-22T00:26:13.000Z,10.9
2023-04-22T00:27:19.000Z,11.2
2023-04-22T00:28:25.000Z,10.9
2023-04-22T00:29:31.000Z,11.6
2023-04-22T00:30:37.000Z,11.6
2023-04-22T00:31:43.000Z,10.9
2023-04-22T00:32:49.000Z,10.3
2023-04-22T00:33:55.000Z,11.6
2023-04-22T00:35:01.000Z,11.9
2023-04-22T00:36:07.000Z,11.2
2023-04-22T00:37:12.000Z,10.9
2023-04-22T00:38:17.000Z,11.9
2023-04-22T00:39:23.000Z,11.2
2023-04-22T00:40:29.000Z,11.6
2023-04-22T00:41:36.000Z,10.6
2023-04-22T00:42:42.000Z,11.9
2023-04-22T00:43:48.000Z,11.2
2023-04-22T00:46:00.000Z,10.9
2023-04-22T00:47:06.000Z,10.6
2023-04-22T00:48:12.000Z,10.9
2023-04-22T00:49:18.000Z,10.6
2023-04-22T00:50:24.000Z,10.9
2023-04-22T00:51:30.000Z,10.6
2023-04-22T00:52:35.000Z,11.2
2023-04-22T00:53:42.000Z,11.2
2023-04-22T00:57:00.000Z,11.2
2023-04-22T00:58:05.000Z,11.6
2023-04-22T00:59:10.000Z,10.9
2023-04-22T01:00:16.000Z,11.2
2023-04-22T01:01:22.000Z,10.9
2023-04-22T01:02:28.000Z,11.2
2023-04-22T01:03:34.000Z,12.2
2023-04-22T01:04:40.000Z,9.9
2023-04-22T01:07:58.000Z,10.9
2023-04-22T01:09:05.000Z,10.9
2023-04-22T01:10:11.000Z,10.9
2023-04-22T01:11:17.000Z,11.6
2023-04-22T01:12:23.000Z,10.3
2023-04-22T01:13:29.000Z,11.6
2023-04-22T01:14:34.000Z,10.9
2023-04-22T01:15:40.000Z,11.2
2023-04-22T01:16:46.000Z,11.6
2023-04-22T01:17:52.000Z,10.6
2023-04-22T01:18:58.000Z,11.2
2023-04-22T01:20:04.000Z,11.6
2023-04-22T01:21:10.000Z,10.9
2023-04-22T01:22:17.000Z,11.2
2023-04-22T01:23:23.000Z,11.2
2023-04-22T01:24:29.000Z,11.2
2023-04-22T01:25:35.000Z,10.6
2023-04-22T01:26:41.000Z,11.2
2023-04-22T01:27:47.000Z,11.6
2023-04-22T01:28:52.000Z,11.2
2023-04-22T01:29:57.000Z,10.6
2023-04-22T01:31:02.000Z,10.6
2023-04-22T01:32:08.000Z,11.2
2023-04-22T01:33:14.000Z,9.9
2023-04-22T01:34:20.000Z,10.9
2023-04-22T01:35:27.000Z,10.9
2023-04-22T01:36:33.000Z,10.9
2023-04-22T01:37:39.000Z,11.2
2023-04-22T01:38:45.000Z,10.9
2023-04-22T01:40:57.000Z,10.9
2023-04-22T01:42:03.000Z,10.9
2023-04-22T01:43:09.000Z,10.3
2023-04-22T01:44:15.000Z,11.2
2023-04-22T01:45:20.000Z,10.6
2023-04-22T01:46:26.000Z,11.2
2023-04-22T01:47:32.000Z,10.9
2023-04-22T01:48:38.000Z,10.9
2023-04-22T01:49:44.000Z,11.6
2023-04-22T01:51:57.000Z,11.6
2023-04-22T01:53:03.000Z,11.6
2023-04-22T01:54:09.000Z,10.9
2023-04-22T01:55:15.000Z,11.2
2023-04-22T01:56:21.000Z,10.3
2023-04-22T01:57:27.000Z,11.2
2023-04-22T01:58:33.000Z,10.3
2023-04-22T01:59:39.000Z,10.3
2023-04-22T02:00:44.000Z,10.9
2023-04-22T02:02:57.000Z,10.6
2023-04-22T02:04:02.000Z,10.9
2023-04-22T02:05:07.000Z,10.3
2023-04-22T02:06:13.000Z,10.6
2023-04-22T02:07:19.000Z,11.2
2023-04-22T02:08:25.000Z,10.3
2023-04-22T02:10:37.000Z,10.9
2023-04-22T02:11:43.000Z,10.9
2023-04-22T02:13:55.000Z,10.6
2023-04-22T02:15:01.000Z,10.9
2023-04-22T02:16:07.000Z,10.9
2023-04-22T02:17:14.000Z,11.6
2023-04-22T02:18:20.000Z,11.6
2023-04-22T02:19:25.000Z,10.3
2023-04-22T02:20:31.000Z,10.9
2023-04-22T02:21:37.000Z,10.6
2023-04-22T02:22:43.000Z,10.6
2023-04-22T02:24:55.000Z,10.3
2023-04-22T02:26:01.000Z,10.9
2023-04-22T02:27:07.000Z,11.2
2023-04-22T02:28:12.000Z,11.2
2023-04-22T02:29:18.000Z,9.9
2023-04-22T02:30:25.000Z,10.9
2023-04-22T02:31:31.000Z,10.6
2023-04-22T02:32:37.000Z,10.6
2023-04-22T02:33:43.000Z,10.6
2023-04-22T02:34:49.000Z,10.6
2023-04-22T02:35:55.000Z,10.6
2023-04-22T02:37:00.000Z,10.9
2023-04-22T02:39:11.000Z,10.3
2023-04-22T02:40:17.000Z,11.2
2023-04-22T02:41:23.000Z,10.9
2023-04-22T02:42:29.000Z,9.9
2023-04-22T02:43:35.000Z,10.9
2023-04-22T02:44:42.000Z,10.9
2023-04-22T02:46:54.000Z,10.6
2023-04-22T02:48:00.000Z,10.9
2023-04-22T02:49:06.000Z,9.9
2023-04-22T02:50:12.000Z,10.9
2023-04-22T02:53:30.000Z,10.9
2023-04-22T02:54:35.000Z,10.9
2023-04-22T02:55:40.000Z,9.9
2023-04-22T02:57:52.000Z,10.3
2023-04-22T02:58:59.000Z,10.6
2023-04-22T03:00:05.000Z,10.6
2023-04-22T03:01:11.000Z,10.6
2023-04-22T03:02:17.000Z,10.3
2023-04-22T03:03:23.000Z,11.2
2023-04-22T03:05:35.000Z,10.9
2023-04-22T03:06:41.000Z,11.2
2023-04-22T03:07:47.000Z,10.3
2023-04-22T03:08:53.000Z,10.6
2023-04-22T03:09:58.000Z,10.6
2023-04-22T03:11:05.000Z,10.3
2023-04-22T03:12:11.000Z,11.6
2023-04-22T03:13:17.000Z,10.9
2023-04-22T03:14:23.000Z,10.9
2023-04-22T03:15:29.000Z,10.9
2023-04-22T03:16:35.000Z,9.9
2023-04-22T03:17:41.000Z,10.3
2023-04-22T03:18:47.000Z,10.9
2023-04-22T03:19:53.000Z,9.3
2023-04-22T03:20:58.000Z,10.6
2023-04-22T03:22:03.000Z,9.9
2023-04-22T03:23:09.000Z,10.9
2023-04-22T03:24:15.000Z,9.9
2023-04-22T03:25:21.000Z,10.3
2023-04-22T03:26:28.000Z,10.6
2023-04-22T03:27:34.000Z,10.3
2023-04-22T03:28:40.000Z,10.9
2023-04-22T03:29:46.000Z,11.2
2023-04-22T03:30:52.000Z,11.2
2023-04-22T03:31:58.000Z,11.2
2023-04-22T03:33:03.000Z,10.3
2023-04-22T03:34:08.000Z,10.9
2023-04-22T03:35:14.000Z,9.9
2023-04-22T03:36:20.000Z,10.3
2023-04-22T03:37:26.000Z,10.6
2023-04-22T03:38:32.000Z,11.2
2023-04-22T03:39:39.000Z,10.9
2023-04-22T03:40:45.000Z,9.6
2023-04-22T03:41:51.000Z,11.2
2023-04-22T03:42:57.000Z,9.6
2023-04-22T03:44:03.000Z,9.9
2023-04-22T03:45:09.000Z,10.3
2023-04-22T03:46:15.000Z,11.2
2023-04-22T03:47:21.000Z,9.6
2023-04-22T03:48:26.000Z,9.6
2023-04-22T03:50:38.000Z,10.3
2023-04-22T03:52:50.000Z,10.3
2023-04-22T03:53:56.000Z,10.6
2023-04-22T03:55:01.000Z,11.2
2023-04-22T03:56:07.000Z,10.9
2023-04-22T03:57:13.000Z,9.9
2023-04-22T03:58:19.000Z,10.3
2023-04-22T03:59:25.000Z,9.9
2023-04-22T04:00:31.000Z,9.9
2023-04-22T04:01:37.000Z,9.9
2023-04-22T04:02:43.000Z,10.6
2023-04-22T04:04:55.000Z,10.6
2023-04-22T04:06:01.000Z,10.6
2023-04-22T04:07:07.000Z,9.9
2023-04-22T04:08:14.000Z,9.9
2023-04-22T04:09:19.000Z,9.3
2023-04-22T04:10:25.000Z,9.9
2023-04-22T04:11:31.000Z,10.3
2023-04-22T04:12:37.000Z,10.9
2023-04-22T04:13:43.000Z,10.6
2023-04-22T04:14:49.000Z,9.9
2023-04-22T04:15:55.000Z,10.9
2023-04-22T04:18:07.000Z,9.9
2023-04-22T04:19:13.000Z,10.9
2023-04-22T04:20:19.000Z,9.9
2023-04-22T04:21:26.000Z,9.6
2023-04-22T04:22:32.000Z,10.3
2023-04-22T04:23:37.000Z,10.9
2023-04-22T04:24:43.000Z,9.6
2023-04-22T04:26:55.000Z,10.6
2023-04-22T04:28:00.000Z,9.9
2023-04-22T04:30:11.000Z,9.9
2023-04-22T04:31:17.000Z,9.3
2023-04-22T04:32:23.000Z,9.9
2023-04-22T04:34:35.000Z,10.6
2023-04-22T04:35:41.000Z,10.9
2023-04-22T04:36:48.000Z,9.6
2023-04-22T04:37:54.000Z,9.9
2023-04-22T04:39:00.000Z,10.6
2023-04-22T04:40:06.000Z,9.6
2023-04-22T04:41:12.000Z,9.6
2023-04-22T04:42:18.000Z,9.9
2023-04-22T04:44:29.000Z,9.6
2023-04-22T04:45:35.000Z,10.6
2023-04-22T04:47:47.000Z,10.6
2023-04-22T04:48:53.000Z,9.6
2023-04-22T04:49:59.000Z,9.3
2023-04-22T04:51:06.000Z,9.6
2023-04-22T04:53:18.000Z,9.9
2023-04-22T04:54:24.000Z,9.9
2023-04-22T04:56:36.000Z,9.6
2023-04-22T04:57:41.000Z,10.9
2023-04-22T04:59:53.000Z,9.9
2023-04-22T05:00:59.000Z,9.6
2023-04-22T05:03:11.000Z,9.9
2023-04-22T05:04:18.000Z,9.9
2023-04-22T05:05:24.000Z,9.9
2023-04-22T05:06:30.000Z,9.9
2023-04-22T05:07:36.000Z,9.6
2023-04-22T05:08:42.000Z,10.9
2023-04-22T05:09:48.000Z,10.6
2023-04-22T05:10:54.000Z,9.6
2023-04-22T05:11:59.000Z,10.3
2023-04-22T05:13:05.000Z,9.6
2023-04-22T05:14:11.000Z,10.6
2023-04-22T05:15:17.000Z,10.3
2023-04-22T05:16:23.000Z,9.3
2023-04-22T05:17:29.000Z,10.6
2023-04-22T05:18:35.000Z,9.9
2023-04-22T05:19:42.000Z,9.9
2023-04-22T05:20:48.000Z,9.9
2023-04-22T05:21:54.000Z,10.9
2023-04-22T05:23:00.000Z,9.9
2023-04-22T05:26:17.000Z,9.6
2023-04-22T05:27:22.000Z,10.3
2023-04-22T05:28:28.000Z,9.3
2023-04-22T05:29:34.000Z,9.9
2023-04-22T05:30:40.000Z,10.6
2023-04-22T05:31:46.000Z,10.6
2023-04-22T05:32:53.000Z,9.9
2023-04-22T05:33:59.000Z,9.6
2023-04-22T05:35:05.000Z,10.6
2023-04-22T05:36:11.000Z,9.9
2023-04-22T05:37:17.000Z,10.3
2023-04-22T05:38:23.000Z,10.9
2023-04-22T05:39:29.000Z,9.6
2023-04-22T05:40:35.000Z,9.9
2023-04-22T05:42:46.000Z,9.6
2023-04-22T05:44:58.000Z,10.6
2023-04-22T05:46:04.000Z,9.9
2023-04-22T05:48:17.000Z,10.3
2023-04-22T05:49:23.000Z,9.3
2023-04-22T05:50:29.000Z,10.3
2023-04-22T05:51:35.000Z,10.3
2023-04-22T05:52:41.000Z,9.3
2023-04-22T05:53:47.000Z,10.6
2023-04-22T05:54:53.000Z,10.6
2023-04-22T05:55:58.000Z,9.3
2023-04-22T05:57:04.000Z,10.6
2023-04-22T05:58:10.000Z,10.6
2023-04-22T05:59:16.000Z,10.9
2023-04-22T06:00:22.000Z,9.9
2023-04-22T06:01:29.000Z,9.9
2023-04-22T06:02:35.000Z,10.6
2023-04-22T06:03:41.000Z,9.6
2023-04-22T06:04:47.000Z,10.9
2023-04-22T06:05:53.000Z,9.6
2023-04-22T06:06:59.000Z,10.3
2023-04-22T06:08:04.000Z,9.9
2023-04-22T06:09:09.000Z,10.3
2023-04-22T06:10:15.000Z,10.6
2023-04-22T06:11:21.000Z,9.9
2023-04-22T06:12:27.000Z,9.9
2023-04-22T06:13:33.000Z,9.3
2023-04-22T06:14:40.000Z,9.3
2023-04-22T06:15:46.000Z,9.9
2023-04-22T06:16:52.000Z,9.9
2023-04-22T06:17:58.000Z,9.9
2023-04-22T06:19:04.000Z,10.3
2023-04-22T06:20:09.000Z,10.6
2023-04-22T06:21:14.000Z,9.9
2023-04-22T06:23:26.000Z,11.2
2023-04-22T06:24:32.000Z,9.9
2023-04-22T06:25:38.000Z,9.6
2023-04-22T06:26:45.000Z,10.6
2023-04-22T06:27:51.000Z,9.6
2023-04-22T06:28:57.000Z,9.9
2023-04-22T06:30:03.000Z,9.6
2023-04-22T06:31:09.000Z,9.9
2023-04-22T06:32:15.000Z,9.9
2023-04-22T06:33:21.000Z,9.9
2023-04-22T06:34:27.000Z,9.9
2023-04-22T06:35:32.000Z,9.6
2023-04-22T06:38:50.000Z,9.6
2023-04-22T06:39:55.000Z,10.3
2023-04-22T06:41:01.000Z,9.6
2023-04-22T06:42:07.000Z,9.6
2023-04-22T06:43:13.000Z,9.6
2023-04-22T06:44:19.000Z,9.6
2023-04-22T06:45:25.000Z,9.3
2023-04-22T06:46:31.000Z,9.9
2023-04-22T06:48:43.000Z,9.9
2023-04-22T06:49:49.000Z,9.9
2023-04-22T06:50:55.000Z,9.9
2023-04-22T06:52:01.000Z,10.9
2023-04-22T06:53:07.000Z,9.9
2023-04-22T06:54:14.000Z,9.3
2023-04-22T06:55:19.000Z,10.3
2023-04-22T06:56:25.000Z,9.9
2023-04-22T06:57:31.000Z,10.6
2023-04-22T06:59:43.000Z,10.3
2023-04-22T07:00:48.000Z,9.9
2023-04-22T07:03:00.000Z,9
2023-04-22T07:05:11.000Z,10.6
2023-04-22T07:06:17.000Z,10.3
2023-04-22T07:07:24.000Z,9.6
2023-04-22T07:08:30.000Z,9.6
2023-04-22T07:09:36.000Z,9.3
2023-04-22T07:10:42.000Z,9.9
2023-04-22T07:11:48.000Z,9.6
2023-04-22T07:12:54.000Z,9.6
2023-04-22T07:14:00.000Z,9.9
2023-04-22T07:15:06.000Z,10.3
2023-04-22T07:16:12.000Z,9.6
2023-04-22T07:18:24.000Z,9.9
2023-04-22T07:19:30.000Z,10.6
2023-04-22T07:20:36.000Z,9.9
2023-04-22T07:21:42.000Z,10.3
2023-04-22T07:22:48.000Z,9
2023-04-22T07:23:54.000Z,9.6
2023-04-22T07:25:00.000Z,10.6
2023-04-22T07:26:06.000Z,10.6
2023-04-22T07:27:12.000Z,8.7
2023-04-22T07:29:23.000Z,9.3
2023-04-22T07:30:28.000Z,9.9
2023-04-22T07:32:40.000Z,10.3
2023-04-22T07:33:46.000Z,10.6
2023-04-22T07:34:52.000Z,10.3
2023-04-22T07:35:59.000Z,9.3
2023-04-22T07:37:05.000Z,10.6
2023-04-22T07:38:11.000Z,9.6
2023-04-22T07:39:17.000Z,9.9
2023-04-22T07:40:23.000Z,9.6
2023-04-22T07:41:29.000Z,9.9
2023-04-22T07:43:41.000Z,10.6
2023-04-22T07:44:46.000Z,9.9
2023-04-22T07:45:52.000Z,9.9
2023-04-22T07:46:58.000Z,10.6
2023-04-22T07:48:04.000Z,9.3
2023-04-22T07:49:10.000Z,9.9
2023-04-22T07:51:23.000Z,9.6
2023-04-22T07:52:29.000Z,10.9
2023-04-22T07:53:35.000Z,9.6
2023-04-22T07:55:47.000Z,10.3
2023-04-22T07:57:59.000Z,9.9
2023-04-22T07:59:04.000Z,9.6
2023-04-22T08:00:10.000Z,9.6
2023-04-22T08:01:16.000Z,9.9
2023-04-22T08:02:22.000Z,10.3
2023-04-22T08:03:29.000Z,9.9
2023-04-22T08:04:35.000Z,9.9
2023-04-22T08:05:41.000Z,9.9
2023-04-22T08:06:47.000Z,9.9
2023-04-22T08:07:53.000Z,9.3
2023-04-22T08:08:59.000Z,9.9
2023-04-22T08:10:05.000Z,10.6
2023-04-22T08:11:11.000Z,9
2023-04-22T08:12:17.000Z,10.6
2023-04-22T08:13:23.000Z,10.3
2023-04-22T08:14:28.000Z,9.3
2023-04-22T08:16:40.000Z,9.9
2023-04-22T08:17:46.000Z,9.9
2023-04-22T08:19:59.000Z,10.9
2023-04-22T08:21:05.000Z,9.3
2023-04-22T08:24:23.000Z,9.6
2023-04-22T08:25:29.000Z,9.6
2023-04-22T08:26:35.000Z,10.6
2023-04-22T08:27:41.000Z,9.9
2023-04-22T08:28:46.000Z,9.9
2023-04-22T08:30:59.000Z,10.6
2023-04-22T08:32:05.000Z,9.9
2023-04-22T08:33:11.000Z,9.6
2023-04-22T08:34:17.000Z,9.9
2023-04-22T08:35:23.000Z,9.6
2023-04-22T08:36:29.000Z,10.6
2023-04-22T08:38:41.000Z,10.6
2023-04-22T08:39:47.000Z,9.9
2023-04-22T08:41:59.000Z,9.6
2023-04-22T08:43:04.000Z,9.9
2023-04-22T08:44:10.000Z,9.9
2023-04-22T08:46:23.000Z,9.6
2023-04-22T08:47:29.000Z,10.6
2023-04-22T08:48:35.000Z,10.6
2023-04-22T08:49:41.000Z,9.9
2023-04-22T08:50:47.000Z,9.9
2023-04-22T08:51:53.000Z,10.9
2023-04-22T08:52:59.000Z,9.3
2023-04-22T08:54:05.000Z,9.6
2023-04-22T08:55:11.000Z,10.6
2023-04-22T08:56:17.000Z,10.6
2023-04-22T08:57:23.000Z,9.6
2023-04-22T08:58:28.000Z,9.9
2023-04-22T09:00:40.000Z,9.9
2023-04-22T09:01:47.000Z,9.9
2023-04-22T09:02:53.000Z,10.6
2023-04-22T09:03:59.000Z,10.6
2023-04-22T09:05:05.000Z,10.6
2023-04-22T09:06:11.000Z,10.3
2023-04-22T09:07:17.000Z,10.6
2023-04-22T09:08:23.000Z,10.3
2023-04-22T09:09:29.000Z,9.6
2023-04-22T09:11:41.000Z,11.2
2023-04-22T09:12:47.000Z,9.6
2023-04-22T09:13:53.000Z,9.9
2023-04-22T09:14:59.000Z,10.6
2023-04-22T09:16:05.000Z,10.6
2023-04-22T09:17:11.000Z,10.3
2023-04-22T09:19:23.000Z,9.9
2023-04-22T09:20:29.000Z,9.9
2023-04-22T09:23:47.000Z,9
2023-04-22T09:24:53.000Z,9.9
2023-04-22T09:25:59.000Z,10.9
2023-04-22T09:27:05.000Z,10.3
2023-04-22T09:28:11.000Z,10.6
2023-04-22T09:31:30.000Z,10.3
2023-04-22T09:34:47.000Z,10.3
2023-04-22T09:35:53.000Z,9.6
2023-04-22T09:36:59.000Z,9.9
2023-04-22T09:38:05.000Z,9.9
2023-04-22T09:39:11.000Z,9.9
2023-04-22T09:41:24.000Z,9.9
2023-04-22T09:42:30.000Z,10.6
2023-04-22T09:43:36.000Z,9.9
2023-04-22T09:44:42.000Z,10.3
2023-04-22T09:45:48.000Z,10.6
2023-04-22T09:46:54.000Z,10.9
2023-04-22T09:48:00.000Z,10.6
2023-04-22T09:49:05.000Z,9.9
2023-04-22T09:50:10.000Z,9.9
2023-04-22T09:51:16.000Z,9.9
2023-04-22T09:52:22.000Z,9.6
2023-04-22T09:55:40.000Z,10.3
2023-04-22T09:56:47.000Z,10.6
2023-04-22T09:57:53.000Z,10.3
2023-04-22T09:58:59.000Z,10.9
2023-04-22T10:00:05.000Z,9.6
2023-04-22T10:01:11.000Z,9.9
2023-04-22T10:02:17.000Z,9.9
2023-04-22T10:03:23.000Z,10.6
2023-04-22T10:04:28.000Z,10.3
2023-04-22T10:06:40.000Z,10.6
2023-04-22T10:07:46.000Z,9.6
2023-04-22T10:08:52.000Z,10.9
2023-04-22T10:09:58.000Z,10.6
2023-04-22T10:12:11.000Z,10.3
2023-04-22T10:13:17.000Z,10.6
2023-04-22T10:14:23.000Z,10.3
2023-04-22T10:15:29.000Z,9.9
2023-04-22T10:17:41.000Z,9.3
2023-04-22T10:18:47.000Z,10.6
2023-04-22T10:19:52.000Z,9.9
2023-04-22T10:20:58.000Z,10.9
2023-04-22T10:23:10.000Z,10.6
2023-04-22T10:24:17.000Z,10.9
2023-04-22T10:25:23.000Z,9.9
2023-04-22T10:26:29.000Z,11.2
2023-04-22T10:27:35.000Z,9.9
2023-04-22T10:28:41.000Z,10.6
2023-04-22T10:29:47.000Z,10.9
2023-04-22T10:30:53.000Z,9.9
2023-04-22T10:31:59.000Z,10.3
2023-04-22T10:33:05.000Z,10.6
2023-04-22T10:34:11.000Z,10.3
2023-04-22T10:36:22.000Z,10.9
2023-04-22T10:37:28.000Z,10.6
2023-04-22T10:41:53.000Z,9.9
2023-04-22T10:42:59.000Z,9.9
2023-04-22T10:44:05.000Z,10.9
2023-04-22T10:45:11.000Z,10.6
2023-04-22T10:46:17.000Z,10.6
2023-04-22T10:47:23.000Z,10.9
2023-04-22T10:48:29.000Z,11.2
2023-04-22T10:50:40.000Z,10.6
2023-04-22T10:51:46.000Z,10.9
2023-04-22T10:52:53.000Z,10.6
2023-04-22T10:53:59.000Z,10.3
2023-04-22T10:55:05.000Z,10.6
2023-04-22T10:56:11.000Z,10.6
2023-04-22T10:57:17.000Z,10.3
2023-04-22T11:00:35.000Z,10.9
2023-04-22T11:01:41.000Z,10.6
2023-04-22T11:04:59.000Z,11.2
2023-04-22T11:06:04.000Z,11.6
2023-04-22T11:07:11.000Z,10.9
2023-04-22T11:08:17.000Z,11.2
2023-04-22T11:09:23.000Z,9.9
2023-04-22T11:12:41.000Z,10.9
2023-04-22T11:13:47.000Z,10.3
2023-04-22T11:14:53.000Z,11.2
2023-04-22T11:15:59.000Z,11.2
2023-04-22T11:18:11.000Z,10.9
2023-04-22T11:19:17.000Z,10.6
2023-04-22T11:20:22.000Z,11.2
2023-04-22T11:21:28.000Z,10.3
2023-04-22T11:22:35.000Z,11.2
2023-04-22T11:24:47.000Z,10.9
2023-04-22T11:26:59.000Z,10.9
2023-04-22T11:28:05.000Z,11.6
2023-04-22T11:30:17.000Z,10.9
2023-04-22T11:31:23.000Z,10.9
2023-04-22T11:34:41.000Z,10.9
2023-04-22T11:36:52.000Z,10.9
2023-04-22T11:37:59.000Z,10.9
2023-04-22T11:39:05.000Z,11.6
2023-04-22T11:40:11.000Z,11.2
2023-04-22T11:41:17.000Z,11.2
2023-04-22T11:43:29.000Z,12.2
2023-04-22T11:44:35.000Z,11.2
2023-04-22T11:45:41.000Z,11.2
2023-04-22T11:46:47.000Z,11.2
2023-04-22T11:47:53.000Z,11.2
2023-04-22T11:49:00.000Z,11.9
2023-04-22T11:50:06.000Z,11.6
2023-04-22T11:51:11.000Z,10.9
2023-04-22T11:52:17.000Z,11.2
2023-04-22T11:53:23.000Z,11.9
2023-04-22T11:54:29.000Z,11.6
2023-04-22T11:56:41.000Z,11.6
2023-04-22T11:57:47.000Z,10.6
2023-04-22T11:58:53.000Z,11.6
2023-04-22T11:59:59.000Z,11.6
2023-04-22T12:01:05.000Z,11.6
2023-04-22T12:02:11.000Z,11.9
2023-04-22T12:03:17.000Z,11.6
2023-04-22T12:05:30.000Z,11.9
2023-04-22T12:06:36.000Z,11.9
2023-04-22T12:07:42.000Z,11.9
2023-04-22T12:08:48.000Z,11.9
2023-04-22T12:11:00.000Z,11.9
2023-04-22T12:12:05.000Z,11.6
2023-04-22T12:13:11.000Z,11.6
2023-04-22T12:14:17.000Z,12.2
2023-04-22T12:15:23.000Z,11.2
2023-04-22T12:18:41.000Z,11.9
2023-04-22T12:19:48.000Z,11.9
2023-04-22T12:20:54.000Z,12.2
2023-04-22T12:22:00.000Z,12.2
2023-04-22T12:23:06.000Z,11.9
2023-04-22T12:24:12.000Z,12.5
2023-04-22T12:25:18.000Z,12.2
2023-04-22T12:26:24.000Z,12.8
2023-04-22T12:27:29.000Z,11.9
2023-04-22T12:28:35.000Z,11.9
2023-04-22T12:29:41.000Z,12.2
2023-04-22T12:30:47.000Z,13.2
2023-04-22T12:31:54.000Z,11.9
2023-04-22T12:33:00.000Z,11.9
2023-04-22T12:34:06.000Z,12.5
2023-04-22T12:36:18.000Z,12.2
2023-04-22T12:37:24.000Z,11.9
2023-04-22T12:40:42.000Z,12.5
2023-04-22T12:41:48.000Z,12.8
2023-04-22T12:42:54.000Z,11.9
2023-04-22T12:44:00.000Z,12.8
2023-04-22T12:45:05.000Z,11.9
2023-04-22T12:46:11.000Z,12.2
2023-04-22T12:47:18.000Z,11.9
2023-04-22T12:48:24.000Z,12.8
2023-04-22T12:49:30.000Z,12.8
2023-04-22T12:52:48.000Z,12.5
2023-04-22T12:53:54.000Z,12.2
2023-04-22T12:55:00.000Z,11.9
2023-04-22T12:57:12.000Z,13.2
2023-04-22T12:59:24.000Z,12.5
2023-04-22T13:00:29.000Z,12.8
2023-04-22T13:02:42.000Z,12.8
2023-04-22T13:03:48.000Z,12.5
2023-04-22T13:04:54.000Z,12.2
2023-04-22T13:06:00.000Z,12.5
2023-04-22T13:07:06.000Z,12.8
2023-04-22T13:09:18.000Z,12.5
2023-04-22T13:10:24.000Z,12.5
2023-04-22T13:11:30.000Z,12.2
2023-04-22T13:12:36.000Z,12.2
2023-04-22T13:14:48.000Z,12.5
2023-04-22T13:15:54.000Z,13.2
2023-04-22T13:17:00.000Z,12.8
2023-04-22T13:18:06.000Z,12.5
2023-04-22T13:20:18.000Z,12.8
2023-04-22T13:21:24.000Z,12.2
2023-04-22T13:23:36.000Z,12.5
2023-04-22T13:24:42.000Z,13.8
2023-04-22T13:25:48.000Z,12.5
2023-04-22T13:26:54.000Z,12.5
2023-04-22T13:28:00.000Z,12.8
2023-04-22T13:29:07.000Z,12.5
2023-04-22T13:30:13.000Z,12.2
2023-04-22T13:32:25.000Z,13.2
2023-04-22T13:33:31.000Z,12.8
2023-04-22T13:35:43.000Z,13.5
2023-04-22T13:36:49.000Z,12.2
2023-04-22T13:37:55.000Z,12.8
2023-04-22T13:39:01.000Z,12.8
2023-04-22T13:41:13.000Z,13.2
2023-04-22T13:42:18.000Z,12.8
2023-04-22T13:43:24.000Z,12.8
2023-04-22T13:44:31.000Z,12.8
2023-04-22T13:46:43.000Z,13.2
2023-04-22T13:47:49.000Z,12.8
2023-04-22T13:48:55.000Z,13.2
2023-04-22T13:50:01.000Z,12.8
2023-04-22T13:51:07.000Z,12.8
2023-04-22T13:52:13.000Z,13.2
2023-04-22T13:53:19.000Z,12.8
2023-04-22T13:54:25.000Z,12.8
2023-04-22T13:55:31.000Z,12.8
2023-04-22T13:58:48.000Z,12.2
2023-04-22T14:01:01.000Z,13.5
2023-04-22T14:02:07.000Z,12.8
2023-04-22T14:03:13.000Z,12.2
2023-04-22T14:05:25.000Z,13.2
2023-04-22T14:06:31.000Z,12.8
2023-04-22T14:07:37.000Z,12.5
2023-04-22T14:08:43.000Z,13.2
2023-04-22T14:09:49.000Z,12.8
2023-04-22T14:10:54.000Z,13.2
2023-04-22T14:12:00.000Z,13.2
2023-04-22T14:14:13.000Z,13.2
2023-04-22T14:15:19.000Z,12.8
2023-04-22T14:17:31.000Z,12.5
2023-04-22T14:19:43.000Z,13.2
2023-04-22T14:20:49.000Z,12.8
2023-04-22T14:21:55.000Z,12.8
2023-04-22T14:24:07.000Z,13.2
2023-04-22T14:25:13.000Z,12.8
2023-04-22T14:27:25.000Z,13.8
2023-04-22T14:28:31.000Z,13.2
2023-04-22T14:30:43.000Z,13.5
2023-04-22T14:31:49.000Z,12.5
2023-04-22T14:32:55.000Z,13.5
2023-04-22T14:35:07.000Z,13.5
2023-04-22T14:36:13.000Z,13.5
2023-04-22T14:37:19.000Z,13.5
2023-04-22T14:38:25.000Z,13.5
2023-04-22T14:39:31.000Z,13.8
2023-04-22T14:40:37.000Z,13.5
2023-04-22T14:41:43.000Z,13.2
2023-04-22T14:42:50.000Z,13.2
2023-04-22T14:43:56.000Z,13.2
2023-04-22T14:45:02.000Z,13.5
2023-04-22T14:46:08.000Z,12.8
2023-04-22T14:47:13.000Z,13.2
2023-04-22T14:48:19.000Z,13.2
2023-04-22T14:49:25.000Z,13.2
2023-04-22T14:52:43.000Z,13.5
2023-04-22T14:54:55.000Z,12.8
2023-04-22T14:56:01.000Z,13.8
2023-04-22T14:57:08.000Z,13.5
2023-04-22T14:58:14.000Z,13.5
2023-04-22T14:59:20.000Z,13.5
2023-04-22T15:00:26.000Z,13.2
2023-04-22T15:01:31.000Z,12.8
2023-04-22T15:02:37.000Z,13.8
2023-04-22T15:03:43.000Z,13.2
2023-04-22T15:04:49.000Z,14.1
2023-04-22T15:05:55.000Z,13.2
2023-04-22T15:07:01.000Z,13.2
2023-04-22T15:08:07.000Z,12.8
2023-04-22T15:09:13.000Z,13.2
2023-04-22T15:10:20.000Z,12.8
2023-04-22T15:11:26.000Z,13.2
2023-04-22T15:12:32.000Z,13.2
2023-04-22T15:14:44.000Z,13.2
2023-04-22T15:15:50.000Z,12.5
2023-04-22T15:16:56.000Z,13.2
2023-04-22T15:18:01.000Z,12.8
2023-04-22T15:19:06.000Z,13.5
2023-04-22T15:20:12.000Z,14.1
2023-04-22T15:21:18.000Z,13.2
2023-04-22T15:22:24.000Z,13.2
2023-04-22T15:23:31.000Z,14.1
2023-04-22T15:25:43.000Z,13.2
2023-04-22T15:27:55.000Z,13.8
2023-04-22T15:29:01.000Z,13.2
2023-04-22T15:30:07.000Z,13.5
2023-04-22T15:31:13.000Z,13.5
2023-04-22T15:32:18.000Z,13.2
2023-04-22T15:33:24.000Z,13.2
2023-04-22T15:34:29.000Z,13.8
2023-04-22T15:35:35.000Z,13.2
2023-04-22T15:36:41.000Z,12.5
2023-04-22T15:37:47.000Z,13.8
2023-04-22T15:38:54.000Z,12.8
2023-04-22T15:40:00.000Z,13.2
2023-04-22T15:41:06.000Z,12.8
2023-04-22T15:42:12.000Z,13.2
2023-04-22T15:43:18.000Z,13.5
2023-04-22T15:44:24.000Z,13.2
2023-04-22T15:45:30.000Z,13.5
2023-04-22T15:47:42.000Z,13.5
2023-04-22T15:48:48.000Z,13.2
2023-04-22T15:49:53.000Z,13.2
2023-04-22T15:51:00.000Z,13.2
2023-04-22T15:52:06.000Z,13.2
2023-04-22T15:53:12.000Z,13.2
2023-04-22T15:54:18.000Z,13.5
2023-04-22T15:55:24.000Z,13.5
2023-04-22T15:56:29.000Z,13.5
2023-04-22T15:57:34.000Z,12.8
2023-04-22T15:58:40.000Z,12.8
2023-04-22T15:59:46.000Z,14.1
2023-04-22T16:00:52.000Z,13.2
2023-04-22T16:01:58.000Z,13.5
2023-04-22T16:03:04.000Z,13.5
2023-04-22T16:04:10.000Z,13.5
2023-04-22T16:05:17.000Z,13.5
2023-04-22T16:06:23.000Z,13.5
2023-04-22T16:07:29.000Z,13.2
2023-04-22T16:09:41.000Z,13.2
2023-04-22T16:10:47.000Z,13.8
2023-04-22T16:11:52.000Z,13.2
2023-04-22T16:12:58.000Z,13.5
2023-04-22T16:14:04.000Z,13.5
2023-04-22T16:15:10.000Z,13.5
2023-04-22T16:17:22.000Z,13.2
2023-04-22T16:20:41.000Z,13.5
2023-04-22T16:21:47.000Z,13.8
2023-04-22T16:22:53.000Z,12.8
2023-04-22T16:23:59.000Z,13.5
2023-04-22T16:25:05.000Z,13.2
2023-04-22T16:26:11.000Z,13.5
2023-04-22T16:27:16.000Z,13.5
2023-04-22T16:28:22.000Z,13.8
2023-04-22T16:29:28.000Z,14.1
2023-04-22T16:30:34.000Z,13.2
2023-04-22T16:31:40.000Z,14.1
2023-04-22T16:33:52.000Z,13.5
2023-04-22T16:34:58.000Z,13.5
2023-04-22T16:36:04.000Z,13.8
2023-04-22T16:37:10.000Z,13.5
2023-04-22T16:38:16.000Z,13.2
2023-04-22T16:39:22.000Z,12.5
2023-04-22T16:40:28.000Z,12.8
2023-04-22T16:41:34.000Z,14.5
2023-04-22T16:42:40.000Z,13.2
2023-04-22T16:43:46.000Z,13.5
2023-04-22T16:44:52.000Z,13.5
2023-04-22T16:45:58.000Z,13.8
2023-04-22T16:47:04.000Z,13.2
2023-04-22T16:48:10.000Z,13.5
2023-04-22T16:49:16.000Z,13.5
2023-04-22T16:50:22.000Z,12.2
2023-04-22T16:51:28.000Z,13.5
2023-04-22T16:52:34.000Z,13.2
2023-04-22T16:53:40.000Z,12.5
2023-04-22T16:54:45.000Z,12.8
2023-04-22T16:55:51.000Z,14.1
2023-04-22T16:56:56.000Z,13.2
2023-04-22T16:59:08.000Z,13.2
2023-04-22T17:00:14.000Z,13.8
2023-04-22T17:01:20.000Z,13.5
2023-04-22T17:02:27.000Z,13.8
2023-04-22T17:03:33.000Z,12.5
2023-04-22T17:04:39.000Z,12.8
2023-04-22T17:05:45.000Z,13.8
2023-04-22T17:06:51.000Z,12.8
2023-04-22T17:07:57.000Z,13.5
2023-04-22T17:10:09.000Z,13.5
2023-04-22T17:11:14.000Z,13.5
2023-04-22T17:12:20.000Z,13.5
2023-04-22T17:13:26.000Z,13.5
2023-04-22T17:15:38.000Z,12.8
2023-04-22T17:16:44.000Z,13.2
2023-04-22T17:17:50.000Z,12.5
2023-04-22T17:18:56.000Z,13.2
2023-04-22T17:21:08.000Z,13.2
2023-04-22T17:22:14.000Z,12.8
2023-04-22T17:23:19.000Z,13.8